createdAt,value
2019-02-28T00:00:11.336Z,12.07
2019-02-28T00:02:39.817Z,11.70
2019-02-28T00:05:08.292Z,11.67
2019-02-28T00:07:36.715Z,12.93
2019-02-28T00:10:09.591Z,11.57
2019-02-28T00:12:38.024Z,11.73
2019-02-28T00:15:08.790Z,12.43
2019-02-28T00:17:37.200Z,12.70
2019-02-28T00:20:07.804Z,12.13
2019-02-28T00:22:36.980Z,14.13
2019-02-28T00:25:07.832Z,13.90
2019-02-28T00:27:36.268Z,14.27
2019-02-28T00:30:07.596Z,13.83
2019-02-28T00:32:36.020Z,14.37
2019-02-28T00:35:05.579Z,15.03
2019-02-28T00:37:33.998Z,16.03
2019-02-28T00:40:02.414Z,17.93
2019-02-28T00:42:30.824Z,17.47
2019-02-28T00:45:02.350Z,18.47
2019-02-28T00:47:29.438Z,18.27
2019-02-28T00:49:57.852Z,19.70
2019-02-28T00:52:26.265Z,19.90
2019-02-28T00:54:54.681Z,20.03
2019-02-28T00:57:23.889Z,19.60
2019-02-28T00:59:53.108Z,19.83
2019-02-28T01:02:21.523Z,20.83
2019-02-28T01:04:49.928Z,21.30
2019-02-28T01:07:18.337Z,20.57
2019-02-28T01:09:46.766Z,21.30
2019-02-28T01:12:18.748Z,21.30
2019-02-28T01:14:45.317Z,21.50
2019-02-28T01:17:13.732Z,21.70
2019-02-28T01:19:42.354Z,22.33
2019-02-28T01:22:10.827Z,22.73
2019-02-28T01:24:39.275Z,23.43
2019-02-28T01:27:07.689Z,22.67
2019-02-28T01:29:36.435Z,22.60
2019-02-28T01:32:05.030Z,22.23
2019-02-28T01:34:33.466Z,22.00
2019-02-28T01:37:01.874Z,22.07
2019-02-28T01:39:30.857Z,22.67
2019-02-28T01:41:59.303Z,22.30
2019-02-28T01:44:27.705Z,22.10
2019-02-28T01:46:56.121Z,22.30
2019-02-28T01:49:26.015Z,22.30
2019-02-28T01:51:54.661Z,21.03
2019-02-28T01:54:25.138Z,20.43
2019-02-28T01:56:53.207Z,21.50
2019-02-28T01:59:22.252Z,21.17
2019-02-28T02:01:50.789Z,20.93
2019-02-28T02:04:19.201Z,20.90
2019-02-28T02:06:47.939Z,21.87
2019-02-28T02:09:16.365Z,22.33
2019-02-28T02:11:44.842Z,23.63
2019-02-28T02:14:13.242Z,21.83
2019-02-28T02:16:41.654Z,21.80
2019-02-28T02:19:10.073Z,21.90
2019-02-28T02:21:38.507Z,22.50
2019-02-28T02:24:06.900Z,22.27
2019-02-28T02:26:35.344Z,21.23
2019-02-28T02:29:03.830Z,22.60
2019-02-28T02:31:32.239Z,21.90
2019-02-28T02:34:00.674Z,21.07
2019-02-28T02:36:29.081Z,22.83
2019-02-28T02:38:57.465Z,24.37
2019-02-28T02:41:25.895Z,22.17
2019-02-28T02:43:55.927Z,23.63
2019-02-28T02:46:24.586Z,23.77
2019-02-28T02:48:53.002Z,23.90
2019-02-28T02:51:21.413Z,23.70
2019-02-28T02:53:49.882Z,23.17
2019-02-28T02:56:18.303Z,23.47
2019-02-28T02:58:46.704Z,24.10
2019-02-28T03:01:15.136Z,24.80
2019-02-28T03:03:44.575Z,24.43
2019-02-28T03:06:14.349Z,24.43
2019-02-28T03:08:43.027Z,23.57
2019-02-28T03:11:11.491Z,23.03
2019-02-28T03:13:43.784Z,23.77
2019-02-28T03:16:10.019Z,23.93
2019-02-28T03:18:38.451Z,24.23
2019-02-28T03:21:06.871Z,23.93
2019-02-28T03:23:40.099Z,23.63
2019-02-28T03:26:07.087Z,23.93
2019-02-28T03:28:35.703Z,25.13
2019-02-28T03:31:12.015Z,23.40
2019-02-28T03:33:34.250Z,24.47
2019-02-28T03:36:02.675Z,23.80
2019-02-28T03:38:31.067Z,25.07
2019-02-28T03:40:59.477Z,24.90
2019-02-28T03:43:27.917Z,24.67
2019-02-28T03:45:56.312Z,24.37
2019-02-28T03:48:24.734Z,24.67
2019-02-28T03:50:55.326Z,25.63
2019-02-28T03:53:23.288Z,25.23
2019-02-28T03:55:51.793Z,25.67
2019-02-28T03:58:20.257Z,24.13
2019-02-28T04:00:48.659Z,24.13
2019-02-28T04:03:17.080Z,24.07
2019-02-28T04:05:45.715Z,24.37
2019-02-28T04:08:14.116Z,24.50
2019-02-28T04:10:42.550Z,24.63
2019-02-28T04:13:10.944Z,23.33
2019-02-28T04:15:49.804Z,25.30
2019-02-28T04:18:09.507Z,23.93
2019-02-28T04:20:38.070Z,24.87
2019-02-28T04:23:06.603Z,25.90
2019-02-28T04:25:35.016Z,24.33
2019-02-28T04:28:03.487Z,25.77
2019-02-28T04:30:33.768Z,26.30
2019-02-28T04:33:02.500Z,27.10
2019-02-28T04:35:31.094Z,28.23
2019-02-28T04:37:59.482Z,27.90
2019-02-28T04:40:27.907Z,27.70
2019-02-28T04:42:56.311Z,29.27
2019-02-28T04:45:26.116Z,30.33
2019-02-28T04:47:54.844Z,29.10
2019-02-28T04:50:23.320Z,28.97
2019-02-28T04:52:51.792Z,29.73
2019-02-28T04:55:20.232Z,29.40
2019-02-28T04:57:51.579Z,29.10
2019-02-28T05:00:19.197Z,27.90
2019-02-28T05:02:47.629Z,28.60
2019-02-28T05:05:16.089Z,27.43
2019-02-28T05:07:44.568Z,28.80
2019-02-28T05:10:13.089Z,27.53
2019-02-28T05:12:41.488Z,27.30
2019-02-28T05:15:12.216Z,27.83
2019-02-28T05:17:40.618Z,26.23
2019-02-28T05:20:10.965Z,26.47
2019-02-28T05:22:40.644Z,28.03
2019-02-28T05:25:10.323Z,26.23
2019-02-28T05:27:38.789Z,27.27
2019-02-28T05:30:10.271Z,26.47
2019-02-28T05:32:38.664Z,26.57
2019-02-28T05:35:07.182Z,28.13
2019-02-28T05:37:35.577Z,27.10
2019-02-28T05:42:33.507Z,27.93
2019-02-28T05:45:03.020Z,29.30
2019-02-28T05:47:32.300Z,30.40
2019-02-28T05:50:01.620Z,31.10
2019-02-28T05:52:30.568Z,32.40
2019-02-28T05:55:00.325Z,31.80
2019-02-28T05:57:28.774Z,33.80
2019-02-28T06:00:01.256Z,32.33
2019-02-28T06:02:27.290Z,33.47
2019-02-28T06:04:55.719Z,35.13
2019-02-28T06:07:25.954Z,34.80
2019-02-28T06:09:54.485Z,34.37
2019-02-28T06:12:22.919Z,33.90
2019-02-28T06:14:51.330Z,34.10
2019-02-28T06:17:20.957Z,34.07
2019-02-28T06:19:49.927Z,36.10
2019-02-28T06:22:18.349Z,36.53
2019-02-28T06:24:46.735Z,36.40
2019-02-28T06:27:15.153Z,36.57
2019-02-28T06:29:43.595Z,37.47
2019-02-28T06:32:13.632Z,37.83
2019-02-28T06:34:43.036Z,38.17
2019-02-28T06:37:11.552Z,40.00
2019-02-28T06:39:39.972Z,41.17
2019-02-28T06:42:08.387Z,39.37
2019-02-28T06:44:36.784Z,41.20
2019-02-28T06:47:05.192Z,41.43
2019-02-28T06:49:33.625Z,42.43
2019-02-28T06:52:02.025Z,42.13
2019-02-28T06:54:30.421Z,42.53
2019-02-28T06:56:58.818Z,41.80
2019-02-28T06:59:27.211Z,42.63
2019-02-28T07:01:57.480Z,44.20
2019-02-28T07:04:25.763Z,43.53
2019-02-28T07:06:54.178Z,43.00
2019-02-28T07:09:22.572Z,43.17
2019-02-28T07:11:51.349Z,43.43
2019-02-28T07:14:21.112Z,41.90
2019-02-28T07:16:49.545Z,43.13
2019-02-28T07:19:17.956Z,42.67
2019-02-28T07:21:46.369Z,41.77
2019-02-28T07:24:19.908Z,39.80
2019-02-28T07:26:53.092Z,40.40
2019-02-28T07:29:21.628Z,41.50
2019-02-28T07:31:51.969Z,38.50
2019-02-28T07:34:25.139Z,41.73
2019-02-28T07:36:58.636Z,40.23
2019-02-28T07:39:32.711Z,39.97
2019-02-28T07:42:02.233Z,39.93
2019-02-28T07:44:31.424Z,39.97
2019-02-28T07:46:59.831Z,39.43
2019-02-28T07:49:28.239Z,41.20
2019-02-28T07:51:57.210Z,40.53
2019-02-28T07:54:26.446Z,38.57
2019-02-28T07:56:54.860Z,39.90
2019-02-28T07:59:23.272Z,39.97
2019-02-28T08:01:51.702Z,39.83
2019-02-28T08:04:20.110Z,39.20
2019-02-28T08:06:48.531Z,40.10
2019-02-28T08:09:24.155Z,39.87
2019-02-28T08:11:55.519Z,39.17
2019-02-28T08:14:22.692Z,41.37
2019-02-28T08:16:51.111Z,39.17
2019-02-28T08:19:19.535Z,38.60
2019-02-28T08:21:50.446Z,39.13
2019-02-28T08:24:18.068Z,38.87
2019-02-28T08:26:46.480Z,39.63
2019-02-28T08:29:14.885Z,40.33
2019-02-28T08:31:43.372Z,38.40
2019-02-28T08:34:11.768Z,38.73
2019-02-28T08:36:43.793Z,38.10
2019-02-28T08:39:12.636Z,37.67
2019-02-28T08:41:41.175Z,38.30
2019-02-28T08:44:09.578Z,36.67
2019-02-28T08:46:38.053Z,38.70
2019-02-28T08:49:07.359Z,37.53
2019-02-28T08:51:35.932Z,39.43
2019-02-28T08:54:06.038Z,38.47
2019-02-28T08:56:34.617Z,38.07
2019-02-28T08:59:11.523Z,37.93
2019-02-28T09:01:33.235Z,38.53
2019-02-28T09:04:05.059Z,38.33
2019-02-28T09:06:33.061Z,38.03
2019-02-28T09:09:01.480Z,38.40
2019-02-28T09:11:29.878Z,38.93
2019-02-28T09:13:58.327Z,40.03
2019-02-28T09:16:26.736Z,38.67
2019-02-28T09:18:57.454Z,38.17
2019-02-28T09:21:25.336Z,38.80
2019-02-28T09:23:53.764Z,38.30
2019-02-28T09:26:22.180Z,38.37
2019-02-28T09:28:50.583Z,38.67
2019-02-28T09:31:19.025Z,38.73
2019-02-28T09:33:47.495Z,38.43
2019-02-28T09:36:20.370Z,38.30
2019-02-28T09:38:46.039Z,38.30
2019-02-28T09:41:14.437Z,38.67
2019-02-28T09:43:42.837Z,37.97
2019-02-28T09:46:12.511Z,38.00
2019-02-28T09:48:41.452Z,38.53
2019-02-28T09:51:10.188Z,38.47
2019-02-28T09:53:38.596Z,38.50
2019-02-28T09:56:09.433Z,38.10
2019-02-28T09:58:37.156Z,38.00
2019-02-28T10:01:05.768Z,38.40
2019-02-28T10:03:34.721Z,37.20
2019-02-28T10:06:03.213Z,36.20
2019-02-28T10:08:33.564Z,36.23
2019-02-28T10:11:01.754Z,35.43
2019-02-28T10:13:30.981Z,35.90
2019-02-28T10:15:59.663Z,37.67
2019-02-28T10:18:28.088Z,35.70
2019-02-28T10:20:59.096Z,35.23
2019-02-28T10:23:26.703Z,35.83
2019-02-28T10:25:54.787Z,35.77
2019-02-28T10:28:23.269Z,35.10
2019-02-28T10:30:51.696Z,36.97
2019-02-28T10:33:20.106Z,35.00
2019-02-28T10:35:48.519Z,33.37
2019-02-28T10:38:17.099Z,33.77
2019-02-28T10:40:45.530Z,33.93
2019-02-28T10:43:15.526Z,31.67
2019-02-28T10:45:46.017Z,32.33
2019-02-28T10:48:14.213Z,30.57
2019-02-28T10:50:42.635Z,31.80
2019-02-28T10:53:11.033Z,31.53
2019-02-28T10:55:40.988Z,27.53
2019-02-28T10:58:12.400Z,27.93
2019-02-28T11:00:42.319Z,26.80
2019-02-28T11:03:10.812Z,26.73
2019-02-28T11:05:41.643Z,26.50
2019-02-28T11:08:14.133Z,28.73
2019-02-28T11:10:44.403Z,26.33
2019-02-28T11:13:14.781Z,24.67
2019-02-28T11:15:48.017Z,24.90
2019-02-28T11:18:13.828Z,24.80
2019-02-28T11:20:42.401Z,25.57
2019-02-28T11:23:14.713Z,25.40
2019-02-28T11:25:41.953Z,24.23
2019-02-28T11:28:10.594Z,23.90
2019-02-28T11:30:44.057Z,22.10
2019-02-28T11:33:09.843Z,22.47
2019-02-28T11:35:38.372Z,23.87
2019-02-28T11:38:06.848Z,22.70
2019-02-28T11:40:35.396Z,22.13
2019-02-28T11:43:04.249Z,21.93
2019-02-28T11:45:39.186Z,21.23
2019-02-28T11:48:10.630Z,21.37
2019-02-28T11:50:42.558Z,21.60
2019-02-28T11:53:09.400Z,22.07
2019-02-28T11:55:38.236Z,22.13
2019-02-28T11:58:06.723Z,21.07
2019-02-28T12:00:39.641Z,21.97
2019-02-28T12:05:50.700Z,22.53
2019-02-28T12:08:17.544Z,23.20
2019-02-28T12:10:45.992Z,22.10
2019-02-28T12:13:16.525Z,21.70
2019-02-28T12:15:44.675Z,21.33
2019-02-28T12:18:13.105Z,22.03
2019-02-28T12:20:41.501Z,22.37
2019-02-28T12:23:09.903Z,22.07
2019-02-28T12:25:39.494Z,21.83
2019-02-28T12:28:08.536Z,22.53
2019-02-28T12:30:37.087Z,24.27
2019-02-28T12:33:05.577Z,24.10
2019-02-28T12:35:40.025Z,23.30
2019-02-28T12:38:04.340Z,23.87
2019-02-28T12:40:38.117Z,22.50
2019-02-28T12:43:09.707Z,23.27
2019-02-28T12:45:39.937Z,23.97
2019-02-28T12:48:10.023Z,23.57
2019-02-28T12:50:38.540Z,23.83
2019-02-28T12:53:06.970Z,23.07
2019-02-28T12:55:38.388Z,23.93
2019-02-28T12:58:05.607Z,23.57
2019-02-28T13:00:39.561Z,23.63
2019-02-28T13:03:09.190Z,24.50
2019-02-28T13:05:37.755Z,24.87
2019-02-28T13:08:07.038Z,25.57
2019-02-28T13:10:35.868Z,26.77
2019-02-28T13:13:07.022Z,25.70
2019-02-28T13:15:34.800Z,27.20
2019-02-28T13:18:07.119Z,27.50
2019-02-28T13:20:36.534Z,27.97
2019-02-28T13:23:05.537Z,28.13
2019-02-28T13:25:34.303Z,26.53
2019-02-28T13:28:02.718Z,28.67
2019-02-28T13:30:31.791Z,27.40
2019-02-28T13:33:00.214Z,29.00
2019-02-28T13:35:46.041Z,29.60
2019-02-28T13:38:17.708Z,28.63
2019-02-28T13:40:44.845Z,29.20
2019-02-28T13:43:19.629Z,30.30
2019-02-28T13:45:42.270Z,29.07
2019-02-28T13:48:10.665Z,30.50
2019-02-28T13:50:39.082Z,31.63
2019-02-28T13:53:17.439Z,32.67
2019-02-28T13:55:39.060Z,32.67
2019-02-28T13:58:07.635Z,33.43
2019-02-28T14:00:44.009Z,32.90
2019-02-28T14:03:16.856Z,34.53
2019-02-28T14:05:44.235Z,34.43
2019-02-28T14:08:12.818Z,35.93
2019-02-28T14:10:41.669Z,36.20
2019-02-28T14:13:10.184Z,36.57
2019-02-28T14:15:48.166Z,36.90
2019-02-28T14:18:17.904Z,38.50
2019-02-28T14:20:46.394Z,41.10
2019-02-28T14:23:20.345Z,41.57
2019-02-28T14:25:44.942Z,42.93
2019-02-28T14:28:13.416Z,40.60
2019-02-28T14:30:41.963Z,41.10
2019-02-28T14:33:10.665Z,42.00
2019-02-28T14:35:39.138Z,40.03
2019-02-28T14:38:07.625Z,41.57
2019-02-28T14:40:36.117Z,38.53
2019-02-28T14:43:04.646Z,36.83
2019-02-28T14:45:43.052Z,36.20
2019-02-28T14:48:11.188Z,35.10
2019-02-28T14:50:39.763Z,34.20
2019-02-28T14:53:13.099Z,33.57
2019-02-28T14:55:38.366Z,33.73
2019-02-28T14:58:06.775Z,30.33
2019-02-28T15:00:35.638Z,29.90
2019-02-28T15:03:04.233Z,31.30
2019-02-28T15:05:43.037Z,36.47
2019-02-28T15:08:11.884Z,39.57
2019-02-28T15:10:41.924Z,40.37
2019-02-28T15:13:10.423Z,41.70
2019-02-28T15:15:39.507Z,42.93
2019-02-28T15:18:11.082Z,42.03
2019-02-28T15:20:38.225Z,42.63
2019-02-28T15:23:06.685Z,43.27
2019-02-28T15:25:35.172Z,43.50
2019-02-28T15:28:03.597Z,43.90
2019-02-28T15:30:37.466Z,43.97
2019-02-28T15:33:05.871Z,42.77
2019-02-28T15:35:34.624Z,43.30
2019-02-28T15:38:05.624Z,42.90
2019-02-28T15:40:40.528Z,43.83
2019-02-28T15:43:09.548Z,44.33
2019-02-28T15:45:38.690Z,42.87
2019-02-28T15:48:07.111Z,42.63
2019-02-28T15:50:35.615Z,40.47
2019-02-28T15:53:04.482Z,39.47
2019-02-28T15:55:35.234Z,40.23
2019-02-28T15:58:05.941Z,38.17
2019-02-28T16:00:35.328Z,39.00
2019-02-28T16:03:04.194Z,39.30
2019-02-28T16:05:32.683Z,39.10
2019-02-28T16:08:01.181Z,38.43
2019-02-28T16:10:31.813Z,36.07
2019-02-28T16:13:03.956Z,36.83
2019-02-28T16:15:32.369Z,36.67
2019-02-28T16:18:00.804Z,34.47
2019-02-28T16:20:31.837Z,32.97
2019-02-28T16:22:59.331Z,32.37
2019-02-28T16:25:33.184Z,30.43
2019-02-28T16:28:04.406Z,29.00
2019-02-28T16:30:32.996Z,29.80
2019-02-28T16:33:01.649Z,29.27
2019-02-28T16:35:30.058Z,28.90
2019-02-28T16:37:58.488Z,27.77
2019-02-28T16:40:31.112Z,28.13
2019-02-28T16:42:59.509Z,26.70
2019-02-28T16:45:33.446Z,25.77
2019-02-28T16:48:03.495Z,26.43
2019-02-28T16:50:32.005Z,25.63
2019-02-28T16:53:00.399Z,25.27
2019-02-28T16:55:30.787Z,25.07
2019-02-28T16:57:58.977Z,24.50
2019-02-28T17:00:27.753Z,24.87
2019-02-28T17:02:56.244Z,25.30
2019-02-28T17:05:27.984Z,25.20
2019-02-28T17:07:54.904Z,23.70
2019-02-28T17:10:24.949Z,22.73
2019-02-28T17:12:59.590Z,22.90
2019-02-28T17:15:41.651Z,22.37
2019-02-28T17:18:22.967Z,21.37
2019-02-28T17:20:51.412Z,21.93
2019-02-28T17:23:19.829Z,21.73
2019-02-28T17:25:48.253Z,20.77
2019-02-28T17:28:18.324Z,20.43
2019-02-28T17:30:51.160Z,19.30
2019-02-28T17:33:19.640Z,18.53
2019-02-28T17:35:48.129Z,18.53
2019-02-28T17:38:16.536Z,18.10
2019-02-28T17:40:44.981Z,17.57
2019-02-28T17:43:13.392Z,16.50
2019-02-28T17:45:41.858Z,17.27
2019-02-28T17:48:19.397Z,16.47
2019-02-28T17:50:56.853Z,15.57
2019-02-28T17:53:34.194Z,15.60
2019-02-28T17:56:29.929Z,15.03
2019-02-28T17:59:13.441Z,13.23
2019-02-28T18:02:06.172Z,13.43
2019-02-28T18:04:40.992Z,13.27
2019-02-28T18:07:12.489Z,13.07
2019-02-28T18:09:45.025Z,12.90
2019-02-28T18:12:23.085Z,13.07
2019-02-28T18:15:05.633Z,13.10
2019-02-28T18:18:01.926Z,13.57
2019-02-28T18:20:54.600Z,10.93
2019-02-28T18:23:32.121Z,11.23
2019-02-28T18:26:38.639Z,10.27
2019-02-28T18:29:05.051Z,10.10
2019-02-28T18:31:33.506Z,9.50
2019-02-28T18:34:01.966Z,9.37
2019-02-28T18:36:31.336Z,10.27
2019-02-28T18:38:59.826Z,10.43
2019-02-28T18:41:28.295Z,10.53
2019-02-28T18:43:59.957Z,10.77
2019-02-28T18:46:29.539Z,9.27
2019-02-28T18:48:57.004Z,9.00
2019-02-28T18:51:25.451Z,9.57
2019-02-28T18:53:54.088Z,9.33
2019-02-28T18:56:22.488Z,8.67
2019-02-28T18:58:51.172Z,9.30
2019-02-28T19:01:19.592Z,9.20
2019-02-28T19:03:48.015Z,9.17
2019-02-28T19:06:16.080Z,44.40
2019-02-28T19:08:44.578Z,60.73
2019-02-28T19:11:12.992Z,20.87
2019-02-28T19:13:41.483Z,16.73
2019-02-28T19:16:15.139Z,12.80
2019-02-28T19:18:43.289Z,8.23
2019-02-28T19:21:11.718Z,8.13
2019-02-28T19:23:40.120Z,8.43
2019-02-28T19:26:08.592Z,10.30
2019-02-28T19:28:37.011Z,9.53
2019-02-28T19:31:05.412Z,8.73
2019-02-28T19:33:33.838Z,8.50
2019-02-28T19:36:02.336Z,8.63
2019-02-28T19:38:30.767Z,8.67
2019-02-28T19:40:59.165Z,7.63
2019-02-28T19:43:27.564Z,8.20
2019-02-28T19:45:56.552Z,7.73
2019-02-28T19:48:24.967Z,7.63
2019-02-28T19:50:53.444Z,7.53
2019-02-28T19:53:21.856Z,8.20
2019-02-28T19:55:50.292Z,7.70
2019-02-28T19:58:18.785Z,7.47
2019-02-28T20:00:47.185Z,7.70
2019-02-28T20:03:15.607Z,7.90
2019-02-28T20:05:44.038Z,7.57
2019-02-28T20:08:12.457Z,7.40
2019-02-28T20:10:40.859Z,7.93
2019-02-28T20:13:09.441Z,7.70
2019-02-28T20:15:39.559Z,7.80
2019-02-28T20:18:07.997Z,7.40
2019-02-28T20:20:36.525Z,7.07
2019-02-28T20:23:05.082Z,7.63
2019-02-28T20:25:33.496Z,8.13
2019-02-28T20:28:01.915Z,7.63
2019-02-28T20:30:30.391Z,8.40
2019-02-28T20:32:58.872Z,8.80
2019-02-28T20:35:27.446Z,8.07
2019-02-28T20:37:55.851Z,8.60
2019-02-28T20:40:29.617Z,8.90
2019-02-28T20:42:58.077Z,9.00
2019-02-28T20:45:26.490Z,8.97
2019-02-28T20:47:54.903Z,8.87
2019-02-28T20:50:29.336Z,8.57
2019-02-28T20:52:57.996Z,9.47
2019-02-28T20:55:26.503Z,8.87
2019-02-28T20:57:54.930Z,8.50
2019-02-28T21:00:25.284Z,8.63
2019-02-28T21:02:53.689Z,8.50
2019-02-28T21:05:22.188Z,8.57
2019-02-28T21:07:50.741Z,9.13
2019-02-28T21:10:19.142Z,9.30
2019-02-28T21:12:47.621Z,9.30
2019-02-28T21:15:16.168Z,9.33
2019-02-28T21:17:44.584Z,8.53
2019-02-28T21:20:14.553Z,10.17
2019-02-28T21:22:42.978Z,10.13
2019-02-28T21:25:16.443Z,10.97
2019-02-28T21:27:44.901Z,11.10
2019-02-28T21:30:24.208Z,11.23
2019-02-28T21:32:52.772Z,11.23
2019-02-28T21:35:21.510Z,11.10
2019-02-28T21:37:50.277Z,10.57
2019-02-28T21:40:20.787Z,11.93
2019-02-28T21:42:49.207Z,10.53
2019-02-28T21:45:20.209Z,11.07
2019-02-28T21:47:49.114Z,10.93
2019-02-28T21:50:18.291Z,11.73
2019-02-28T21:52:48.279Z,11.47
2019-02-28T21:55:17.338Z,11.63
2019-02-28T21:57:45.896Z,10.90
2019-02-28T22:00:24.888Z,10.67
2019-02-28T22:02:53.299Z,9.77
2019-02-28T22:05:21.692Z,10.10
2019-02-28T22:07:50.128Z,9.73
2019-02-28T22:10:18.615Z,9.90
2019-02-28T22:12:47.024Z,10.20
2019-02-28T22:15:25.650Z,9.37
2019-02-28T22:17:54.068Z,9.20
2019-02-28T22:20:22.560Z,9.33
2019-02-28T22:22:50.977Z,9.07
2019-02-28T22:25:19.425Z,9.10
2019-02-28T22:27:47.837Z,8.13
2019-02-28T22:30:43.048Z,8.87
2019-02-28T22:33:31.618Z,7.97
2019-02-28T22:36:01.692Z,8.07
2019-02-28T22:38:30.128Z,9.20
2019-02-28T22:40:58.560Z,8.20
2019-02-28T22:43:27.019Z,8.80
2019-02-28T22:45:55.443Z,9.07
2019-02-28T22:48:23.852Z,9.23
2019-02-28T22:50:52.314Z,8.50
2019-02-28T22:53:20.721Z,9.47
2019-02-28T22:55:49.130Z,8.43
2019-02-28T22:58:17.578Z,8.73
2019-02-28T23:01:11.484Z,8.47
2019-02-28T23:03:40.149Z,8.90
2019-02-28T23:06:08.680Z,8.33
2019-02-28T23:08:37.400Z,8.67
2019-02-28T23:11:05.877Z,9.57
2019-02-28T23:13:34.368Z,9.17
2019-02-28T23:16:02.921Z,10.40
2019-02-28T23:18:31.330Z,10.23
2019-02-28T23:20:59.742Z,10.23
2019-02-28T23:23:28.152Z,10.97
2019-02-28T23:26:07.844Z,11.87
2019-02-28T23:28:38.903Z,11.47
2019-02-28T23:31:27.040Z,12.40
2019-02-28T23:34:01.373Z,12.50
2019-02-28T23:36:28.687Z,12.73
2019-02-28T23:38:57.104Z,13.73
2019-02-28T23:41:25.498Z,13.77
2019-02-28T23:43:53.924Z,13.53
2019-02-28T23:46:22.346Z,12.90
2019-02-28T23:48:50.765Z,13.63
2019-02-28T23:51:19.174Z,13.40
2019-02-28T23:53:47.619Z,14.33
2019-02-28T23:56:16.030Z,13.70
2019-02-28T23:58:44.445Z,13.23
